createdAt,value
2022-10-26T00:00:43.046Z,99.90
2022-10-26T00:03:09.876Z,99.90
2022-10-26T00:05:36.791Z,99.90
2022-10-26T00:08:03.719Z,99.90
2022-10-26T00:10:31.725Z,99.90
2022-10-26T00:12:58.807Z,99.90
2022-10-26T00:15:25.671Z,99.90
2022-10-26T00:17:52.464Z,99.90
2022-10-26T00:20:19.390Z,99.90
2022-10-26T00:22:46.286Z,99.90
2022-10-26T00:25:13.119Z,99.90
2022-10-26T00:27:39.999Z,99.90
2022-10-26T00:30:07.714Z,99.90
2022-10-26T00:32:34.890Z,99.90
2022-10-26T00:35:10.583Z,99.90
2022-10-26T00:37:48.632Z,99.90
2022-10-26T00:40:15.636Z,99.90
2022-10-26T00:42:42.428Z,99.90
2022-10-26T00:45:24.887Z,99.90
2022-10-26T00:47:57.930Z,99.90
2022-10-26T00:50:42.894Z,99.90
2022-10-26T00:53:11.183Z,99.90
2022-10-26T00:55:42.925Z,99.90
2022-10-26T00:58:10.677Z,99.90
2022-10-26T01:00:37.956Z,99.90
2022-10-26T01:03:07.302Z,99.90
2022-10-26T01:05:36.907Z,99.90
2022-10-26T01:08:04.192Z,99.90
2022-10-26T01:10:31.168Z,99.90
2022-10-26T01:12:59.403Z,99.90
2022-10-26T01:15:53.247Z,99.90
2022-10-26T01:18:25.106Z,99.90
2022-10-26T01:21:16.649Z,99.90
2022-10-26T01:23:54.322Z,99.90
2022-10-26T01:29:36.560Z,99.90
2022-10-26T01:32:13.937Z,99.90
2022-10-26T01:35:00.292Z,99.90
2022-10-26T01:37:31.973Z,99.90
2022-10-26T01:40:07.694Z,99.90
2022-10-26T01:42:36.426Z,99.90
2022-10-26T01:45:07.180Z,99.90
2022-10-26T01:47:36.586Z,99.90
2022-10-26T01:50:05.649Z,99.90
2022-10-26T01:52:32.900Z,99.90
2022-10-26T01:55:01.410Z,99.90
2022-10-26T01:57:32.132Z,99.90
2022-10-26T02:00:03.272Z,99.90
2022-10-26T02:02:56.998Z,99.90
2022-10-26T02:05:58.432Z,99.90
2022-10-26T02:08:45.018Z,99.90
2022-10-26T02:11:39.971Z,99.90
2022-10-26T02:14:19.211Z,99.90
2022-10-26T02:16:58.314Z,99.90
2022-10-26T02:19:42.656Z,99.90
2022-10-26T02:22:33.418Z,99.90
2022-10-26T02:25:05.032Z,99.90
2022-10-26T02:27:34.999Z,99.90
2022-10-26T02:30:04.129Z,99.90
2022-10-26T02:32:35.517Z,99.90
2022-10-26T02:35:05.379Z,99.90
2022-10-26T02:37:35.576Z,99.90
2022-10-26T02:40:07.513Z,99.90
2022-10-26T02:42:35.325Z,99.90
2022-10-26T02:45:09.855Z,99.90
2022-10-26T02:47:36.865Z,99.90
2022-10-26T02:50:04.048Z,99.90
2022-10-26T02:52:56.174Z,99.90
2022-10-26T02:55:27.518Z,99.90
2022-10-26T02:58:00.817Z,99.90
2022-10-26T03:00:29.140Z,99.90
2022-10-26T03:02:58.037Z,99.90
2022-10-26T03:05:27.521Z,99.90
2022-10-26T03:07:54.823Z,99.90
2022-10-26T03:10:22.652Z,99.90
2022-10-26T03:12:50.063Z,99.90
2022-10-26T03:15:17.164Z,99.90
2022-10-26T03:17:44.036Z,99.90
2022-10-26T03:20:11.380Z,99.90
2022-10-26T03:22:38.195Z,99.90
2022-10-26T03:25:05.601Z,99.90
2022-10-26T03:29:59.728Z,99.90
2022-10-26T03:32:26.522Z,99.90
2022-10-26T03:34:53.360Z,99.90
2022-10-26T03:37:20.200Z,99.90
2022-10-26T03:39:47.004Z,99.90
2022-10-26T03:42:13.829Z,99.90
2022-10-26T03:44:40.781Z,99.90
2022-10-26T03:47:07.664Z,99.90
2022-10-26T03:49:34.512Z,99.90
2022-10-26T03:52:01.384Z,99.90
2022-10-26T03:54:28.216Z,99.90
2022-10-26T03:56:55.337Z,99.90
2022-10-26T03:59:22.631Z,99.90
2022-10-26T04:01:52.730Z,99.90
2022-10-26T04:04:22.421Z,99.90
2022-10-26T04:06:50.315Z,99.90
2022-10-26T04:09:17.246Z,99.90
2022-10-26T04:11:44.039Z,99.90
2022-10-26T04:14:10.848Z,99.90
2022-10-26T04:16:37.711Z,99.90
2022-10-26T04:19:04.492Z,99.90
2022-10-26T04:21:31.356Z,99.90
2022-10-26T04:23:58.188Z,99.90
2022-10-26T04:26:25.311Z,99.90
2022-10-26T04:28:52.124Z,99.90
2022-10-26T04:31:19.085Z,99.90
2022-10-26T04:33:45.967Z,99.90
2022-10-26T04:36:12.746Z,99.90
2022-10-26T04:38:39.594Z,99.90
2022-10-26T04:41:06.374Z,99.90
2022-10-26T04:43:33.194Z,99.90
2022-10-26T04:45:59.986Z,99.90
2022-10-26T04:48:26.812Z,99.90
2022-10-26T04:50:53.644Z,99.90
2022-10-26T04:53:20.477Z,99.90
2022-10-26T04:55:47.324Z,99.90
2022-10-26T04:58:14.157Z,99.90
2022-10-26T05:00:40.998Z,99.90
2022-10-26T05:03:08.049Z,99.90
2022-10-26T05:05:36.351Z,99.90
2022-10-26T05:08:03.375Z,99.90
2022-10-26T05:10:30.366Z,99.90
2022-10-26T05:12:59.066Z,99.90
2022-10-26T05:15:26.897Z,99.90
2022-10-26T05:18:02.033Z,99.90
2022-10-26T05:20:30.811Z,99.90
2022-10-26T05:22:59.058Z,99.90
2022-10-26T05:25:26.531Z,99.90
2022-10-26T05:27:58.130Z,99.90
2022-10-26T05:30:25.172Z,99.90
2022-10-26T05:33:00.191Z,99.90
2022-10-26T05:35:27.455Z,99.90
2022-10-26T05:37:54.751Z,99.90
2022-10-26T05:40:22.387Z,99.90
2022-10-26T05:42:49.338Z,99.90
2022-10-26T05:45:16.928Z,99.90
2022-10-26T05:47:45.021Z,99.90
2022-10-26T05:50:13.284Z,99.90
2022-10-26T05:52:41.429Z,99.90
2022-10-26T05:55:09.466Z,99.90
2022-10-26T05:57:37.090Z,99.90
2022-10-26T06:00:15.548Z,99.90
2022-10-26T06:03:20.279Z,99.90
2022-10-26T06:06:02.592Z,99.90
2022-10-26T06:08:32.329Z,99.90
2022-10-26T06:10:59.821Z,99.90
2022-10-26T06:13:26.911Z,99.90
2022-10-26T06:16:12.014Z,99.90
2022-10-26T06:18:59.612Z,99.90
2022-10-26T06:21:38.738Z,99.90
2022-10-26T06:24:12.487Z,99.90
2022-10-26T06:27:01.002Z,99.90
2022-10-26T06:29:45.911Z,99.90
2022-10-26T06:32:12.767Z,99.90
2022-10-26T06:34:45.071Z,99.90
2022-10-26T06:37:13.082Z,99.90
2022-10-26T06:39:44.513Z,99.90
2022-10-26T06:42:11.945Z,99.90
2022-10-26T06:44:39.158Z,99.90
2022-10-26T06:47:25.557Z,99.90
2022-10-26T06:50:01.204Z,99.90
2022-10-26T06:52:41.583Z,99.90
2022-10-26T06:55:14.536Z,99.90
2022-10-26T06:57:43.301Z,99.90
2022-10-26T07:00:24.395Z,99.90
2022-10-26T07:02:51.821Z,99.90
2022-10-26T07:05:19.239Z,99.90
2022-10-26T07:07:48.012Z,99.90
2022-10-26T07:10:15.668Z,99.90
2022-10-26T07:12:42.504Z,99.90
2022-10-26T07:17:49.476Z,99.90
2022-10-26T07:22:45.432Z,99.90
2022-10-26T07:25:12.885Z,99.90
2022-10-26T07:27:39.670Z,99.90
2022-10-26T07:30:07.252Z,99.90
2022-10-26T07:32:34.114Z,99.90
2022-10-26T07:35:00.922Z,99.90
2022-10-26T07:37:28.057Z,99.90
2022-10-26T07:39:54.830Z,99.90
2022-10-26T07:42:22.303Z,99.90
2022-10-26T07:44:49.172Z,99.90
2022-10-26T07:47:15.903Z,99.90
2022-10-26T07:49:42.757Z,99.90
2022-10-26T07:52:10.326Z,99.90
2022-10-26T07:54:37.250Z,99.90
2022-10-26T07:59:35.827Z,99.90
2022-10-26T08:02:02.784Z,99.90
2022-10-26T08:04:29.694Z,99.90
2022-10-26T08:06:56.608Z,99.90
2022-10-26T08:09:23.657Z,99.90
2022-10-26T08:11:50.512Z,99.90
2022-10-26T08:14:17.294Z,99.90
2022-10-26T08:16:44.083Z,99.90
2022-10-26T08:19:10.938Z,99.90
2022-10-26T08:21:40.851Z,99.90
2022-10-26T08:24:08.396Z,99.90
2022-10-26T08:26:35.250Z,99.90
2022-10-26T08:29:02.138Z,99.90
2022-10-26T08:33:56.163Z,99.90
2022-10-26T08:36:28.002Z,99.90
2022-10-26T08:38:54.867Z,99.90
2022-10-26T08:41:33.637Z,99.90
2022-10-26T08:44:14.508Z,99.90
2022-10-26T08:46:46.713Z,99.90
2022-10-26T08:49:24.010Z,99.90
2022-10-26T08:51:56.087Z,99.90
2022-10-26T08:54:28.735Z,99.90
2022-10-26T08:57:09.296Z,99.90
2022-10-26T08:59:38.840Z,99.90
2022-10-26T09:02:16.910Z,99.90
2022-10-26T09:04:44.891Z,99.90
2022-10-26T09:07:35.180Z,99.90
2022-10-26T09:10:21.170Z,99.90
2022-10-26T09:12:52.961Z,99.90
2022-10-26T09:15:37.289Z,99.90
2022-10-26T09:18:39.126Z,99.90
2022-10-26T09:21:18.464Z,99.90
2022-10-26T09:24:06.753Z,99.90
2022-10-26T09:26:48.681Z,99.90
2022-10-26T09:29:15.590Z,99.90
2022-10-26T09:31:46.531Z,99.90
2022-10-26T09:34:42.195Z,99.90
2022-10-26T09:37:23.297Z,99.90
2022-10-26T09:40:00.639Z,99.90
2022-10-26T09:45:24.451Z,99.90
2022-10-26T09:47:56.664Z,99.90
2022-10-26T09:50:29.122Z,99.90
2022-10-26T09:52:56.009Z,99.90
2022-10-26T09:55:22.970Z,99.90
2022-10-26T09:57:53.582Z,99.90
2022-10-26T10:00:22.791Z,99.90
2022-10-26T10:02:55.457Z,99.90
2022-10-26T10:05:51.780Z,99.90
2022-10-26T10:08:26.938Z,99.90
2022-10-26T10:11:10.393Z,99.90
2022-10-26T10:13:45.775Z,99.90
2022-10-26T10:16:20.233Z,99.90
2022-10-26T10:18:54.954Z,99.90
2022-10-26T10:21:22.576Z,99.90
2022-10-26T10:23:51.912Z,99.90
2022-10-26T10:26:18.900Z,99.90
2022-10-26T10:29:00.611Z,99.90
2022-10-26T10:31:32.345Z,99.90
2022-10-26T10:34:00.087Z,99.90
2022-10-26T10:36:29.703Z,99.90
2022-10-26T10:38:56.992Z,99.90
2022-10-26T10:41:35.365Z,99.90
2022-10-26T10:44:23.646Z,99.90
2022-10-26T10:46:50.534Z,99.90
2022-10-26T10:49:25.329Z,99.90
2022-10-26T10:51:52.358Z,99.90
2022-10-26T10:54:32.980Z,99.90
2022-10-26T10:57:26.717Z,99.90
2022-10-26T11:00:05.403Z,99.90
2022-10-26T11:03:13.785Z,99.90
2022-10-26T11:05:58.739Z,99.90
2022-10-26T11:11:33.542Z,99.90
2022-10-26T11:14:39.014Z,99.90
2022-10-26T11:17:13.333Z,99.90
2022-10-26T11:19:48.443Z,99.90
2022-10-26T11:22:20.538Z,99.90
2022-10-26T11:24:49.719Z,99.90
2022-10-26T11:27:33.291Z,99.90
2022-10-26T11:30:03.348Z,99.90
2022-10-26T11:32:34.595Z,99.90
2022-10-26T11:35:27.095Z,99.90
2022-10-26T11:38:03.147Z,99.90
2022-10-26T11:40:48.210Z,99.90
2022-10-26T11:43:33.559Z,99.90
2022-10-26T11:46:28.370Z,99.90
2022-10-26T11:49:14.762Z,99.90
2022-10-26T11:51:49.354Z,99.90
2022-10-26T11:54:33.590Z,99.90
2022-10-26T11:57:03.664Z,99.90
2022-10-26T11:59:35.326Z,99.90
2022-10-26T12:02:05.147Z,99.90
2022-10-26T12:04:35.641Z,99.90
2022-10-26T12:07:07.499Z,99.90
2022-10-26T12:09:38.899Z,99.90
2022-10-26T12:12:37.285Z,99.90
2022-10-26T12:15:35.553Z,99.90
2022-10-26T12:18:54.057Z,99.90
2022-10-26T12:21:19.849Z,99.90
2022-10-26T12:26:55.085Z,99.90
2022-10-26T12:29:34.207Z,99.90
2022-10-26T12:32:01.007Z,99.90
2022-10-26T12:34:30.848Z,99.90
2022-10-26T12:36:58.163Z,99.90
2022-10-26T12:39:34.877Z,99.90
2022-10-26T12:42:10.988Z,99.90
2022-10-26T12:44:45.197Z,99.90
2022-10-26T12:47:30.321Z,99.90
2022-10-26T12:50:06.923Z,99.90
2022-10-26T12:52:41.906Z,99.90
2022-10-26T12:55:39.556Z,99.90
2022-10-26T12:58:15.508Z,99.80
2022-10-26T13:01:07.737Z,99.90
2022-10-26T13:03:48.909Z,98.20
2022-10-26T13:06:33.841Z,96.70
2022-10-26T13:09:17.616Z,97.00
2022-10-26T13:11:49.618Z,96.50
2022-10-26T13:14:23.574Z,96.00
2022-10-26T13:16:50.879Z,96.80
2022-10-26T13:19:48.662Z,96.70
2022-10-26T13:22:20.073Z,97.40
2022-10-26T13:25:02.177Z,96.90
2022-10-26T13:27:34.974Z,96.70
2022-10-26T13:30:04.583Z,96.50
2022-10-26T13:32:38.903Z,96.40
2022-10-26T13:35:13.515Z,96.50
2022-10-26T13:37:46.393Z,97.50
2022-10-26T13:40:18.110Z,96.30
2022-10-26T13:43:00.789Z,97.10
2022-10-26T13:45:55.096Z,97.20
2022-10-26T13:48:41.681Z,97.10
2022-10-26T13:51:22.096Z,97.70
2022-10-26T13:53:53.409Z,98.00
2022-10-26T13:56:28.319Z,98.60
2022-10-26T13:59:03.154Z,97.60
2022-10-26T14:01:30.819Z,97.50
2022-10-26T14:03:58.452Z,97.90
2022-10-26T14:06:35.910Z,97.80
2022-10-26T14:09:13.579Z,98.40
2022-10-26T14:11:45.078Z,98.80
2022-10-26T14:14:19.038Z,98.60
2022-10-26T14:16:46.803Z,98.40
2022-10-26T14:19:31.010Z,99.40
2022-10-26T14:21:58.415Z,99.10
2022-10-26T14:24:46.217Z,99.50
2022-10-26T14:27:19.295Z,99.90
2022-10-26T14:30:03.576Z,99.90
2022-10-26T14:32:32.089Z,99.40
2022-10-26T14:34:59.163Z,99.70
2022-10-26T14:37:35.138Z,99.90
2022-10-26T14:40:03.173Z,99.90
2022-10-26T14:42:36.395Z,99.90
2022-10-26T14:45:03.626Z,99.70
2022-10-26T14:47:33.064Z,99.90
2022-10-26T14:52:36.083Z,99.90
2022-10-26T14:55:05.436Z,99.90
2022-10-26T14:57:35.299Z,99.90
2022-10-26T15:00:11.540Z,99.90
2022-10-26T15:02:38.738Z,99.90
2022-10-26T15:05:19.553Z,99.90
2022-10-26T15:07:46.750Z,99.90
2022-10-26T15:10:39.811Z,99.90
2022-10-26T15:13:31.731Z,99.90
2022-10-26T15:16:16.040Z,99.90
2022-10-26T15:18:44.575Z,99.90
2022-10-26T15:21:37.361Z,99.90
2022-10-26T15:24:20.639Z,99.90
2022-10-26T15:26:47.887Z,99.90
2022-10-26T15:29:34.977Z,99.90
2022-10-26T15:32:03.075Z,99.90
2022-10-26T15:34:29.985Z,99.90
2022-10-26T15:36:57.035Z,99.90
2022-10-26T15:39:26.296Z,99.90
2022-10-26T15:41:53.264Z,99.90
2022-10-26T15:44:22.089Z,99.90
2022-10-26T15:46:49.725Z,99.90
2022-10-26T15:49:21.496Z,99.90
2022-10-26T15:51:49.503Z,99.90
2022-10-26T15:54:16.725Z,99.90
2022-10-26T15:56:43.966Z,99.90
2022-10-26T15:59:16.528Z,99.90
2022-10-26T16:01:43.514Z,99.90
2022-10-26T16:04:11.702Z,99.90
2022-10-26T16:06:40.863Z,99.90
2022-10-26T16:09:13.729Z,99.90
2022-10-26T16:11:40.506Z,99.90
2022-10-26T16:14:07.654Z,99.90
2022-10-26T16:16:34.457Z,99.90
2022-10-26T16:19:25.424Z,99.90
2022-10-26T16:21:51.538Z,99.90
2022-10-26T16:24:18.721Z,99.90
2022-10-26T16:26:45.895Z,99.90
2022-10-26T16:29:12.680Z,99.90
2022-10-26T16:31:39.509Z,99.90
2022-10-26T16:34:06.601Z,99.90
2022-10-26T16:36:33.436Z,99.90
2022-10-26T16:41:29.508Z,99.90
2022-10-26T16:43:56.661Z,99.90
2022-10-26T16:46:24.963Z,99.90
2022-10-26T16:48:52.792Z,99.90
2022-10-26T16:51:22.741Z,99.90
2022-10-26T16:53:52.089Z,99.90
2022-10-26T16:56:22.459Z,99.90
2022-10-26T16:58:49.850Z,99.90
2022-10-26T17:01:19.461Z,99.90
2022-10-26T17:03:48.628Z,99.90
2022-10-26T17:06:17.341Z,99.90
2022-10-26T17:08:44.289Z,99.90
2022-10-26T17:11:17.523Z,99.90
2022-10-26T17:13:46.404Z,99.90
2022-10-26T17:16:21.452Z,99.90
2022-10-26T17:18:49.144Z,99.90
2022-10-26T17:21:18.769Z,99.90
2022-10-26T17:23:46.440Z,99.90
2022-10-26T17:26:15.151Z,99.90
2022-10-26T17:28:42.463Z,99.90
2022-10-26T17:31:11.220Z,99.90
2022-10-26T17:33:39.799Z,99.90
2022-10-26T17:36:08.393Z,99.90
2022-10-26T17:38:38.302Z,99.90
2022-10-26T17:41:12.847Z,99.90
2022-10-26T17:43:42.549Z,99.90
2022-10-26T17:46:16.463Z,99.90
2022-10-26T17:48:44.181Z,99.90
2022-10-26T17:51:15.151Z,99.90
2022-10-26T17:53:42.903Z,99.90
2022-10-26T17:56:22.485Z,99.90
2022-10-26T17:58:53.874Z,99.90
2022-10-26T18:01:21.976Z,99.90
2022-10-26T18:03:49.457Z,99.90
2022-10-26T18:06:17.329Z,99.90
2022-10-26T18:08:47.015Z,99.90
2022-10-26T18:11:17.286Z,99.90
2022-10-26T18:13:45.155Z,99.90
2022-10-26T18:16:19.495Z,99.90
2022-10-26T18:18:48.910Z,99.90
2022-10-26T18:21:18.680Z,99.90
2022-10-26T18:23:47.610Z,99.90
2022-10-26T18:26:20.613Z,99.90
2022-10-26T18:28:48.310Z,99.90
2022-10-26T18:31:22.140Z,99.90
2022-10-26T18:33:49.556Z,99.90
2022-10-26T18:36:18.662Z,99.90
2022-10-26T18:38:49.867Z,99.90
2022-10-26T18:41:19.219Z,99.90
2022-10-26T18:43:49.298Z,99.90
2022-10-26T18:46:21.778Z,99.90
2022-10-26T18:48:50.292Z,99.90
2022-10-26T18:51:19.932Z,99.90
2022-10-26T18:53:48.209Z,99.90
2022-10-26T18:56:18.371Z,99.90
2022-10-26T18:58:48.296Z,99.90
2022-10-26T19:01:28.625Z,99.90
2022-10-26T19:04:05.993Z,99.90
2022-10-26T19:06:36.642Z,99.90
2022-10-26T19:09:05.664Z,99.90
2022-10-26T19:11:34.081Z,99.90
2022-10-26T19:14:01.189Z,99.90
2022-10-26T19:16:45.320Z,99.90
2022-10-26T19:19:13.246Z,99.90
2022-10-26T19:21:41.696Z,99.90
2022-10-26T19:24:15.506Z,99.90
2022-10-26T19:26:44.257Z,99.90
2022-10-26T19:29:16.376Z,99.90
2022-10-26T19:31:49.824Z,99.90
2022-10-26T19:34:18.006Z,99.90
2022-10-26T19:36:45.876Z,99.90
2022-10-26T19:39:19.643Z,99.90
2022-10-26T19:41:50.418Z,99.90
2022-10-26T19:44:20.724Z,99.90
2022-10-26T19:46:49.288Z,99.90
2022-10-26T19:49:17.458Z,99.90
2022-10-26T19:54:26.746Z,99.90
2022-10-26T19:56:54.274Z,99.90
2022-10-26T19:59:23.340Z,99.90
2022-10-26T20:01:51.208Z,99.90
2022-10-26T20:04:18.191Z,99.90
2022-10-26T20:06:45.652Z,99.90
2022-10-26T20:09:12.668Z,99.90
2022-10-26T20:11:40.256Z,99.90
2022-10-26T20:14:07.712Z,99.90
2022-10-26T20:16:35.385Z,99.90
2022-10-26T20:19:02.461Z,99.90
2022-10-26T20:21:30.375Z,99.90
2022-10-26T20:23:57.772Z,99.90
2022-10-26T20:26:28.229Z,99.90
2022-10-26T20:28:56.455Z,99.90
2022-10-26T20:31:23.978Z,99.90
2022-10-26T20:33:52.636Z,99.90
2022-10-26T20:36:21.233Z,99.90
2022-10-26T20:38:48.880Z,99.90
2022-10-26T20:41:20.092Z,99.90
2022-10-26T20:43:48.021Z,99.90
2022-10-26T20:46:23.742Z,99.90
2022-10-26T20:48:52.807Z,99.90
2022-10-26T20:52:08.179Z,99.90
2022-10-26T20:54:42.799Z,99.90
2022-10-26T20:57:16.396Z,99.90
2022-10-26T20:59:47.586Z,99.90
2022-10-26T21:02:14.601Z,99.90
2022-10-26T21:04:41.906Z,99.90
2022-10-26T21:07:09.104Z,99.90
2022-10-26T21:09:36.876Z,99.90
2022-10-26T21:12:04.704Z,99.90
2022-10-26T21:14:31.567Z,99.90
2022-10-26T21:16:58.444Z,99.90
2022-10-26T21:19:25.321Z,99.90
2022-10-26T21:21:52.166Z,99.90
2022-10-26T21:26:46.498Z,99.90
2022-10-26T21:29:13.440Z,99.90
2022-10-26T21:31:40.346Z,99.90
2022-10-26T21:34:08.169Z,99.90
2022-10-26T21:36:35.049Z,99.90
2022-10-26T21:39:02.276Z,99.90
2022-10-26T21:41:29.188Z,99.90
2022-10-26T21:44:03.661Z,99.90
2022-10-26T21:46:37.181Z,99.90
2022-10-26T21:49:04.303Z,99.90
2022-10-26T21:51:31.269Z,99.90
2022-10-26T21:53:58.132Z,99.90
2022-10-26T21:56:24.938Z,99.90
2022-10-26T21:58:51.797Z,99.90
2022-10-26T22:01:21.142Z,99.90
2022-10-26T22:03:49.022Z,99.90
2022-10-26T22:06:20.786Z,99.90
2022-10-26T22:08:48.170Z,99.90
2022-10-26T22:11:18.098Z,99.90
2022-10-26T22:13:46.273Z,99.90
2022-10-26T22:16:22.963Z,99.90
2022-10-26T22:18:52.966Z,99.90
2022-10-26T22:21:21.176Z,99.90
2022-10-26T22:23:48.392Z,99.90
2022-10-26T22:26:20.983Z,99.90
2022-10-26T22:28:50.111Z,99.90
2022-10-26T22:31:20.544Z,99.90
2022-10-26T22:34:13.749Z,99.90
2022-10-26T22:36:40.681Z,99.90
2022-10-26T22:39:07.531Z,99.90
2022-10-26T22:41:34.443Z,99.90
2022-10-26T22:44:01.247Z,99.90
2022-10-26T22:46:28.757Z,99.90
2022-10-26T22:49:00.654Z,99.90
2022-10-26T22:51:31.201Z,99.90
2022-10-26T22:53:59.647Z,99.90
2022-10-26T22:56:28.100Z,99.90
2022-10-26T22:58:55.142Z,99.90
2022-10-26T23:01:24.960Z,99.90
2022-10-26T23:03:53.748Z,99.90
2022-10-26T23:06:21.098Z,99.90
2022-10-26T23:08:47.979Z,99.90
2022-10-26T23:11:17.536Z,99.90
2022-10-26T23:13:44.795Z,99.90
2022-10-26T23:16:14.126Z,99.90
2022-10-26T23:18:41.641Z,99.90
2022-10-26T23:21:10.083Z,99.90
2022-10-26T23:23:37.323Z,99.90
2022-10-26T23:26:06.920Z,99.90
2022-10-26T23:28:34.876Z,99.90
2022-10-26T23:31:02.133Z,99.90
2022-10-26T23:33:29.231Z,99.90
2022-10-26T23:35:56.085Z,99.90
2022-10-26T23:38:23.289Z,99.90
2022-10-26T23:40:56.468Z,99.90
2022-10-26T23:43:24.585Z,99.90
2022-10-26T23:45:51.689Z,99.90
2022-10-26T23:48:18.845Z,99.90
2022-10-26T23:50:47.412Z,99.90
2022-10-26T23:53:16.460Z,99.90
2022-10-26T23:55:44.755Z,99.90
2022-10-26T23:58:12.233Z,99.90
